createdAt,value
2023-05-21T00:00:02.212Z,25.00
2023-05-21T00:01:02.225Z,25.00
2023-05-21T00:02:02.264Z,0.00
2023-05-21T00:03:02.320Z,0.00
2023-05-21T00:04:02.366Z,0.00
2023-05-21T00:05:02.269Z,0.00
2023-05-21T00:06:02.298Z,0.00
2023-05-21T00:07:02.281Z,0.00
2023-05-21T00:08:02.270Z,0.00
2023-05-21T00:09:02.268Z,12.36
2023-05-21T00:10:02.287Z,26.61
2023-05-21T00:11:02.291Z,25.00
2023-05-21T00:12:02.305Z,25.67
2023-05-21T00:13:02.265Z,27.08
2023-05-21T00:14:02.255Z,25.00
2023-05-21T00:15:02.261Z,25.02
2023-05-21T00:16:02.278Z,26.57
2023-05-21T00:17:02.281Z,25.88
2023-05-21T00:18:02.288Z,27.30
2023-05-21T00:19:02.364Z,25.00
2023-05-21T00:20:02.292Z,27.21
2023-05-21T00:21:02.327Z,26.60
2023-05-21T00:22:02.340Z,25.00
2023-05-21T00:23:02.365Z,25.00
2023-05-21T00:24:02.398Z,27.15
2023-05-21T00:25:02.411Z,25.00
2023-05-21T00:26:02.409Z,24.96
2023-05-21T00:27:02.424Z,26.80
2023-05-21T00:28:02.462Z,27.55
2023-05-21T00:29:02.436Z,25.81
2023-05-21T00:30:02.438Z,25.00
2023-05-21T00:31:02.438Z,25.00
2023-05-21T00:32:02.567Z,26.29
2023-05-21T00:33:02.675Z,25.00
2023-05-21T00:34:02.457Z,27.89
2023-05-21T00:35:02.463Z,25.00
2023-05-21T00:36:02.455Z,29.35
2023-05-21T00:37:02.469Z,25.00
2023-05-21T00:38:02.469Z,25.00
2023-05-21T00:39:02.554Z,27.86
2023-05-21T00:40:02.472Z,26.59
2023-05-21T00:41:02.473Z,27.81
2023-05-21T00:42:02.464Z,26.69
2023-05-21T00:43:02.460Z,27.28
2023-05-21T00:44:02.550Z,25.13
2023-05-21T00:45:02.486Z,27.77
2023-05-21T00:46:02.509Z,25.00
2023-05-21T00:47:02.451Z,25.00
2023-05-21T00:48:02.508Z,27.01
2023-05-21T00:49:02.462Z,26.73
2023-05-21T00:50:02.461Z,26.17
2023-05-21T00:51:02.463Z,26.43
2023-05-21T00:52:02.458Z,27.81
2023-05-21T00:53:02.454Z,26.64
2023-05-21T00:54:02.479Z,25.81
2023-05-21T00:55:02.452Z,26.37
2023-05-21T00:56:02.465Z,25.83
2023-05-21T00:57:02.461Z,27.83
2023-05-21T00:58:02.463Z,25.00
2023-05-21T00:59:02.465Z,27.24
2023-05-21T01:00:02.508Z,29.70
2023-05-21T01:01:02.545Z,25.00
2023-05-21T01:02:02.565Z,28.27
2023-05-21T01:03:02.552Z,27.48
2023-05-21T01:04:02.481Z,26.02
2023-05-21T01:05:02.507Z,27.70
2023-05-21T01:06:02.527Z,28.15
2023-05-21T01:07:02.502Z,28.31
2023-05-21T01:08:02.507Z,28.01
2023-05-21T01:09:04.416Z,25.00
2023-05-21T01:10:02.491Z,34.15
2023-05-21T01:11:02.493Z,28.57
2023-05-21T01:12:02.482Z,27.19
2023-05-21T01:13:02.477Z,26.37
2023-05-21T01:14:02.469Z,27.06
2023-05-21T01:15:02.481Z,27.05
2023-05-21T01:16:02.488Z,27.34
2023-05-21T01:17:02.499Z,25.91
2023-05-21T01:18:02.487Z,28.86
2023-05-21T01:19:02.546Z,27.34
2023-05-21T01:20:02.428Z,28.71
2023-05-21T01:21:02.471Z,27.53
2023-05-21T01:22:02.470Z,29.77
2023-05-21T01:23:02.400Z,25.46
2023-05-21T01:24:02.398Z,28.87
2023-05-21T01:25:02.402Z,25.70
2023-05-21T01:26:02.418Z,26.28
2023-05-21T01:27:02.381Z,26.80
2023-05-21T01:28:02.394Z,27.12
2023-05-21T01:29:02.363Z,26.46
2023-05-21T01:30:02.367Z,25.00
2023-05-21T01:31:02.357Z,25.03
2023-05-21T01:32:02.376Z,31.89
2023-05-21T01:33:02.498Z,28.00
2023-05-21T01:34:02.504Z,26.58
2023-05-21T01:35:02.406Z,28.82
2023-05-21T01:36:02.328Z,27.50
2023-05-21T01:37:02.332Z,27.98
2023-05-21T01:38:02.318Z,28.02
2023-05-21T01:39:02.301Z,27.75
2023-05-21T01:40:02.305Z,27.70
2023-05-21T01:41:02.285Z,25.88
2023-05-21T01:42:02.285Z,26.37
2023-05-21T01:43:02.268Z,28.67
2023-05-21T01:44:02.261Z,27.18
2023-05-21T01:45:02.256Z,25.48
2023-05-21T01:46:02.306Z,27.90
2023-05-21T01:47:02.265Z,27.16
2023-05-21T01:48:02.333Z,29.32
2023-05-21T01:49:02.231Z,27.00
2023-05-21T01:50:02.227Z,28.09
2023-05-21T01:51:02.230Z,27.79
2023-05-21T01:52:02.217Z,26.53
2023-05-21T01:53:02.232Z,26.58
2023-05-21T01:54:02.207Z,29.45
2023-05-21T01:55:02.188Z,27.59
2023-05-21T01:56:02.182Z,27.44
2023-05-21T01:57:02.176Z,26.76
2023-05-21T01:58:02.729Z,25.00
2023-05-21T01:59:02.168Z,26.63
2023-05-21T02:00:02.167Z,26.60
2023-05-21T02:01:02.149Z,27.94
2023-05-21T02:02:02.199Z,27.56
2023-05-21T02:03:02.258Z,26.13
2023-05-21T02:04:02.220Z,28.48
2023-05-21T02:05:02.126Z,27.22
2023-05-21T02:06:02.119Z,28.59
2023-05-21T02:07:02.105Z,27.82
2023-05-21T02:08:02.107Z,28.27
2023-05-21T02:09:02.097Z,28.21
2023-05-21T02:10:02.113Z,25.53
2023-05-21T02:11:02.096Z,27.96
2023-05-21T02:12:02.082Z,26.99
2023-05-21T02:13:02.076Z,29.08
2023-05-21T02:14:02.062Z,27.83
2023-05-21T02:15:02.072Z,26.94
2023-05-21T02:16:02.054Z,27.46
2023-05-21T02:17:02.044Z,26.42
2023-05-21T02:18:02.092Z,25.88
2023-05-21T02:19:02.046Z,28.32
2023-05-21T02:20:02.054Z,27.48
2023-05-21T02:21:02.022Z,27.69
2023-05-21T02:22:02.020Z,28.55
2023-05-21T02:23:02.055Z,28.24
2023-05-21T02:24:01.999Z,25.00
2023-05-21T02:25:02.001Z,26.00
2023-05-21T02:26:01.982Z,25.53
2023-05-21T02:27:01.979Z,28.15
2023-05-21T02:28:01.967Z,26.22
2023-05-21T02:29:01.964Z,27.43
2023-05-21T02:30:02.004Z,27.78
2023-05-21T02:31:01.956Z,26.20
2023-05-21T02:32:01.942Z,27.28
2023-05-21T02:33:01.965Z,29.45
2023-05-21T02:34:01.962Z,25.42
2023-05-21T02:35:01.934Z,26.03
2023-05-21T02:36:01.946Z,27.11
2023-05-21T02:37:01.919Z,26.85
2023-05-21T02:38:01.911Z,28.29
2023-05-21T02:39:01.963Z,27.09
2023-05-21T02:40:01.898Z,30.07
2023-05-21T02:41:01.884Z,26.29
2023-05-21T02:42:01.880Z,28.44
2023-05-21T02:43:01.872Z,27.59
2023-05-21T02:44:01.867Z,30.60
2023-05-21T02:45:01.866Z,28.01
2023-05-21T02:46:01.972Z,29.83
2023-05-21T02:47:01.845Z,28.90
2023-05-21T02:48:01.878Z,30.68
2023-05-21T02:49:01.836Z,29.33
2023-05-21T02:50:01.855Z,30.34
2023-05-21T02:51:01.814Z,26.98
2023-05-21T02:52:01.876Z,30.49
2023-05-21T02:53:01.802Z,28.05
2023-05-21T02:54:01.801Z,27.70
2023-05-21T02:55:01.809Z,26.34
2023-05-21T02:56:01.783Z,31.01
2023-05-21T02:57:01.765Z,27.78
2023-05-21T02:58:01.765Z,28.22
2023-05-21T02:59:01.762Z,28.09
2023-05-21T03:00:00.750Z,26.45
2023-05-21T03:01:01.828Z,28.55
2023-05-21T03:02:01.800Z,27.95
2023-05-21T03:03:01.878Z,28.53
2023-05-21T03:04:01.741Z,26.01
2023-05-21T03:05:01.726Z,27.23
2023-05-21T03:06:01.790Z,27.15
2023-05-21T03:07:01.713Z,29.55
2023-05-21T03:08:01.731Z,28.59
2023-05-21T03:09:01.714Z,29.04
2023-05-21T03:10:01.733Z,27.17
2023-05-21T03:11:01.693Z,25.97
2023-05-21T03:12:01.675Z,31.46
2023-05-21T03:13:01.733Z,27.32
2023-05-21T03:14:01.687Z,28.02
2023-05-21T03:15:01.674Z,27.15
2023-05-21T03:16:01.655Z,27.12
2023-05-21T03:17:01.714Z,26.01
2023-05-21T03:18:01.781Z,27.74
2023-05-21T03:19:01.666Z,28.93
2023-05-21T03:20:01.699Z,26.63
2023-05-21T03:21:01.633Z,29.77
2023-05-21T03:22:01.653Z,28.30
2023-05-21T03:23:01.646Z,29.86
2023-05-21T03:24:01.665Z,30.34
2023-05-21T03:25:01.645Z,26.75
2023-05-21T03:26:01.659Z,30.69
2023-05-21T03:27:01.656Z,27.57
2023-05-21T03:28:01.669Z,26.65
2023-05-21T03:29:01.672Z,30.25
2023-05-21T03:30:01.709Z,31.11
2023-05-21T03:31:01.685Z,29.21
2023-05-21T03:32:01.783Z,27.64
2023-05-21T03:33:01.726Z,30.17
2023-05-21T03:34:01.706Z,27.33
2023-05-21T03:35:01.712Z,28.49
2023-05-21T03:36:01.715Z,26.80
2023-05-21T03:37:01.729Z,28.93
2023-05-21T03:38:01.738Z,29.20
2023-05-21T03:39:01.743Z,28.46
2023-05-21T03:40:01.789Z,26.00
2023-05-21T03:41:01.763Z,26.53
2023-05-21T03:42:01.769Z,25.91
2023-05-21T03:43:01.768Z,28.91
2023-05-21T03:44:01.799Z,27.48
2023-05-21T03:45:01.798Z,27.32
2023-05-21T03:46:01.847Z,26.24
2023-05-21T03:47:01.805Z,29.05
2023-05-21T03:48:01.907Z,30.41
2023-05-21T03:49:01.827Z,30.51
2023-05-21T03:50:01.865Z,28.82
2023-05-21T03:51:01.835Z,29.26
2023-05-21T03:52:01.842Z,28.62
2023-05-21T03:53:01.854Z,28.48
2023-05-21T03:54:01.858Z,25.53
2023-05-21T03:55:01.887Z,27.34
2023-05-21T03:56:01.887Z,29.65
2023-05-21T03:57:01.882Z,27.64
2023-05-21T03:58:01.895Z,27.97
2023-05-21T03:59:01.897Z,28.07
2023-05-21T04:00:01.882Z,25.59
2023-05-21T04:01:01.885Z,28.61
2023-05-21T04:02:01.889Z,27.90
2023-05-21T04:03:02.103Z,29.65
2023-05-21T04:04:02.018Z,30.21
2023-05-21T04:05:01.930Z,29.01
2023-05-21T04:06:01.969Z,27.99
2023-05-21T04:07:01.964Z,27.60
2023-05-21T04:08:01.950Z,29.84
2023-05-21T04:09:01.951Z,28.40
2023-05-21T04:10:01.976Z,28.39
2023-05-21T04:11:01.984Z,29.03
2023-05-21T04:12:02.023Z,29.11
2023-05-21T04:13:02.006Z,27.99
2023-05-21T04:14:02.008Z,31.77
2023-05-21T04:15:02.034Z,25.41
2023-05-21T04:16:02.064Z,26.66
2023-05-21T04:17:02.019Z,29.56
2023-05-21T04:18:02.108Z,27.27
2023-05-21T04:19:02.094Z,31.63
2023-05-21T04:20:02.077Z,26.90
2023-05-21T04:21:02.047Z,27.63
2023-05-21T04:22:02.033Z,27.46
2023-05-21T04:23:02.041Z,27.18
2023-05-21T04:24:02.038Z,26.40
2023-05-21T04:25:02.040Z,27.96
2023-05-21T04:26:02.039Z,28.74
2023-05-21T04:27:02.047Z,28.43
2023-05-21T04:28:02.077Z,27.87
2023-05-21T04:29:02.058Z,28.95
2023-05-21T04:30:02.077Z,26.74
2023-05-21T04:31:02.118Z,28.76
2023-05-21T04:32:02.080Z,30.58
2023-05-21T04:33:02.136Z,26.34
2023-05-21T04:34:02.119Z,27.24
2023-05-21T04:35:02.112Z,27.38
2023-05-21T04:36:02.103Z,26.38
2023-05-21T04:37:02.132Z,27.71
2023-05-21T04:38:04.082Z,26.56
2023-05-21T04:39:02.114Z,31.06
2023-05-21T04:40:02.120Z,28.64
2023-05-21T04:41:02.105Z,28.10
2023-05-21T04:42:02.094Z,28.02
2023-05-21T04:43:02.099Z,26.04
2023-05-21T04:44:02.112Z,25.99
2023-05-21T04:45:02.070Z,26.85
2023-05-21T04:46:02.065Z,27.14
2023-05-21T04:47:02.139Z,31.74
2023-05-21T04:48:02.098Z,28.30
2023-05-21T04:49:02.055Z,31.21
2023-05-21T04:50:02.049Z,26.83
2023-05-21T04:51:02.050Z,27.05
2023-05-21T04:52:02.032Z,28.70
2023-05-21T04:53:02.023Z,25.82
2023-05-21T04:54:02.013Z,26.14
2023-05-21T04:55:02.007Z,26.82
2023-05-21T04:56:02.015Z,27.43
2023-05-21T04:57:01.999Z,30.75
2023-05-21T04:58:02.003Z,28.65
2023-05-21T04:59:03.354Z,31.40
2023-05-21T05:00:02.035Z,31.59
2023-05-21T05:01:02.054Z,31.96
2023-05-21T05:02:01.968Z,29.30
2023-05-21T05:03:02.048Z,31.60
2023-05-21T05:04:02.043Z,29.96
2023-05-21T05:05:01.938Z,28.96
2023-05-21T05:06:01.932Z,30.31
2023-05-21T05:07:01.947Z,27.08
2023-05-21T05:08:01.924Z,30.75
2023-05-21T05:09:01.934Z,28.95
2023-05-21T05:10:01.913Z,28.49
2023-05-21T05:11:01.902Z,29.51
2023-05-21T05:12:01.906Z,25.68
2023-05-21T05:13:01.896Z,29.13
2023-05-21T05:14:01.882Z,27.04
2023-05-21T05:15:01.877Z,28.87
2023-05-21T05:16:01.905Z,28.13
2023-05-21T05:17:01.968Z,28.22
2023-05-21T05:18:01.889Z,28.94
2023-05-21T05:19:01.901Z,28.81
2023-05-21T05:20:01.841Z,28.45
2023-05-21T05:21:01.839Z,25.00
2023-05-21T05:22:01.835Z,25.00
2023-05-21T05:23:01.840Z,25.67
2023-05-21T05:24:01.819Z,27.96
2023-05-21T05:25:01.804Z,28.09
2023-05-21T05:26:01.820Z,27.42
2023-05-21T05:27:01.802Z,29.29
2023-05-21T05:28:01.795Z,28.17
2023-05-21T05:29:01.775Z,28.09
2023-05-21T05:30:01.782Z,27.61
2023-05-21T05:31:01.903Z,28.39
2023-05-21T05:32:01.798Z,29.00
2023-05-21T05:33:01.791Z,28.87
2023-05-21T05:34:01.749Z,28.58
2023-05-21T05:35:02.685Z,28.66
2023-05-21T05:36:01.734Z,27.79
2023-05-21T05:37:01.737Z,28.19
2023-05-21T05:38:01.732Z,29.00
2023-05-21T05:39:01.721Z,27.46
2023-05-21T05:40:01.712Z,27.23
2023-05-21T05:41:01.717Z,28.83
2023-05-21T05:42:01.704Z,26.65
2023-05-21T05:43:01.692Z,28.68
2023-05-21T05:44:01.686Z,28.55
2023-05-21T05:45:01.676Z,30.28
2023-05-21T05:46:01.700Z,29.65
2023-05-21T05:47:01.678Z,27.89
2023-05-21T05:48:01.735Z,25.00
2023-05-21T05:49:01.652Z,28.48
2023-05-21T05:50:01.649Z,30.50
2023-05-21T05:51:01.638Z,30.10
2023-05-21T05:52:01.641Z,28.52
2023-05-21T05:53:01.633Z,29.65
2023-05-21T05:54:01.628Z,29.46
2023-05-21T05:55:01.619Z,26.96
2023-05-21T05:56:01.616Z,27.80
2023-05-21T05:57:01.604Z,25.60
2023-05-21T05:58:01.589Z,25.95
2023-05-21T05:59:01.585Z,27.70
2023-05-21T06:00:01.689Z,27.89
2023-05-21T06:01:01.573Z,26.01
2023-05-21T06:02:01.568Z,28.56
2023-05-21T06:03:01.694Z,28.03
2023-05-21T06:04:01.653Z,26.11
2023-05-21T06:05:01.580Z,25.88
2023-05-21T06:06:01.561Z,29.28
2023-05-21T06:07:01.539Z,27.16
2023-05-21T06:08:01.565Z,28.72
2023-05-21T06:09:01.517Z,27.97
2023-05-21T06:10:01.520Z,29.69
2023-05-21T06:11:01.500Z,26.11
2023-05-21T06:12:01.500Z,29.51
2023-05-21T06:13:01.496Z,27.76
2023-05-21T06:14:01.485Z,28.43
2023-05-21T06:15:01.475Z,27.60
2023-05-21T06:16:01.524Z,28.21
2023-05-21T06:17:01.485Z,27.78
2023-05-21T06:18:01.488Z,27.63
2023-05-21T06:19:01.486Z,29.03
2023-05-21T06:20:01.474Z,28.69
2023-05-21T06:21:01.446Z,26.92
2023-05-21T06:22:01.437Z,29.50
2023-05-21T06:23:01.428Z,28.63
2023-05-21T06:24:01.416Z,30.28
2023-05-21T06:25:01.429Z,29.27
2023-05-21T06:26:01.435Z,30.34
2023-05-21T06:27:01.425Z,28.73
2023-05-21T06:28:01.438Z,30.94
2023-05-21T06:29:01.438Z,27.96
2023-05-21T06:30:01.436Z,28.04
2023-05-21T06:31:01.443Z,28.63
2023-05-21T06:32:01.444Z,29.76
2023-05-21T06:33:01.524Z,30.83
2023-05-21T06:34:01.760Z,31.62
2023-05-21T06:35:01.440Z,31.11
2023-05-21T06:36:01.485Z,28.02
2023-05-21T06:37:01.435Z,27.49
2023-05-21T06:38:01.440Z,30.05
2023-05-21T06:39:01.440Z,27.96
2023-05-21T06:40:01.434Z,27.97
2023-05-21T06:41:01.436Z,25.66
2023-05-21T06:42:01.459Z,29.00
2023-05-21T06:43:01.442Z,28.73
2023-05-21T06:44:01.449Z,28.08
2023-05-21T06:45:01.444Z,28.81
2023-05-21T06:46:01.557Z,30.16
2023-05-21T06:47:01.459Z,27.17
2023-05-21T06:48:01.494Z,26.11
2023-05-21T06:49:01.447Z,28.38
2023-05-21T06:50:01.444Z,28.57
2023-05-21T06:51:01.434Z,27.20
2023-05-21T06:52:01.463Z,27.24
2023-05-21T06:53:01.443Z,28.88
2023-05-21T06:54:01.440Z,26.51
2023-05-21T06:55:01.436Z,30.56
2023-05-21T06:56:01.457Z,26.16
2023-05-21T06:57:01.438Z,27.79
2023-05-21T06:58:01.448Z,25.82
2023-05-21T06:59:01.449Z,29.06
2023-05-21T07:00:01.462Z,27.73
2023-05-21T07:01:01.493Z,25.65
2023-05-21T07:02:03.766Z,27.57
2023-05-21T07:03:01.558Z,27.76
2023-05-21T07:04:01.449Z,27.98
2023-05-21T07:05:01.469Z,27.62
2023-05-21T07:06:01.434Z,27.18
2023-05-21T07:07:01.421Z,28.24
2023-05-21T07:08:01.440Z,28.40
2023-05-21T07:09:01.416Z,29.00
2023-05-21T07:10:01.410Z,29.70
2023-05-21T07:11:01.401Z,28.98
2023-05-21T07:12:01.387Z,29.34
2023-05-21T07:13:01.393Z,30.80
2023-05-21T07:14:01.382Z,29.26
2023-05-21T07:15:01.384Z,28.61
2023-05-21T07:16:01.372Z,30.52
2023-05-21T07:17:01.415Z,28.90
2023-05-21T07:18:01.369Z,27.35
2023-05-21T07:19:01.373Z,28.93
2023-05-21T07:20:01.353Z,27.64
2023-05-21T07:21:01.331Z,29.95
2023-05-21T07:22:01.333Z,28.31
2023-05-21T07:23:01.332Z,28.61
2023-05-21T07:24:01.345Z,29.33
2023-05-21T07:25:01.317Z,30.54
2023-05-21T07:26:01.305Z,30.42
2023-05-21T07:27:03.160Z,29.23
2023-05-21T07:28:01.300Z,29.75
2023-05-21T07:29:01.321Z,30.63
2023-05-21T07:30:01.285Z,31.68
2023-05-21T07:31:01.301Z,31.17
2023-05-21T07:32:01.269Z,31.39
2023-05-21T07:33:01.338Z,32.05
2023-05-21T07:34:01.249Z,30.44
2023-05-21T07:35:01.252Z,30.33
2023-05-21T07:36:01.244Z,29.91
2023-05-21T07:37:01.243Z,29.34
2023-05-21T07:38:01.254Z,30.71
2023-05-21T07:39:01.222Z,29.99
2023-05-21T07:40:01.278Z,30.62
2023-05-21T07:41:01.213Z,30.66
2023-05-21T07:42:01.202Z,28.78
2023-05-21T07:43:01.217Z,28.88
2023-05-21T07:44:01.194Z,28.97
2023-05-21T07:45:01.195Z,32.78
2023-05-21T07:46:01.210Z,31.05
2023-05-21T07:47:01.175Z,29.89
2023-05-21T07:48:01.255Z,29.52
2023-05-21T07:49:01.154Z,28.75
2023-05-21T07:50:01.199Z,29.66
2023-05-21T07:51:01.146Z,27.95
2023-05-21T07:52:01.155Z,29.10
2023-05-21T07:53:01.164Z,26.94
2023-05-21T07:54:01.124Z,26.98
2023-05-21T07:55:01.128Z,27.97
2023-05-21T07:56:01.144Z,28.18
2023-05-21T07:57:01.099Z,28.68
2023-05-21T07:58:01.098Z,26.72
2023-05-21T07:59:01.090Z,28.14
2023-05-21T08:00:01.083Z,30.73
2023-05-21T08:01:01.084Z,27.45
2023-05-21T08:02:01.087Z,27.93
2023-05-21T08:03:01.128Z,26.56
2023-05-21T08:04:01.247Z,29.15
2023-05-21T08:05:01.067Z,27.38
2023-05-21T08:06:01.046Z,27.96
2023-05-21T08:07:01.036Z,30.68
2023-05-21T08:08:01.041Z,30.03
2023-05-21T08:09:01.019Z,29.64
2023-05-21T08:10:02.662Z,27.05
2023-05-21T08:11:01.003Z,34.45
2023-05-21T08:12:01.041Z,34.36
2023-05-21T08:13:00.998Z,31.85
2023-05-21T08:14:00.985Z,29.43
2023-05-21T08:15:00.977Z,31.34
2023-05-21T08:16:01.013Z,31.42
2023-05-21T08:17:00.975Z,31.24
2023-05-21T08:18:01.003Z,30.89
2023-05-21T08:19:00.975Z,29.91
2023-05-21T08:20:00.959Z,29.61
2023-05-21T08:21:00.947Z,29.79
2023-05-21T08:22:00.932Z,28.81
2023-05-21T08:23:00.934Z,28.25
2023-05-21T08:24:00.921Z,31.03
2023-05-21T08:25:00.924Z,30.26
2023-05-21T08:26:00.927Z,32.12
2023-05-21T08:27:00.898Z,30.23
2023-05-21T08:28:00.919Z,31.25
2023-05-21T08:29:00.896Z,32.48
2023-05-21T08:30:00.892Z,31.47
2023-05-21T08:31:00.897Z,31.33
2023-05-21T08:32:00.906Z,32.40
2023-05-21T08:33:00.916Z,31.16
2023-05-21T08:34:00.854Z,33.57
2023-05-21T08:35:00.848Z,29.59
2023-05-21T08:36:00.860Z,33.94
2023-05-21T08:37:00.835Z,32.44
2023-05-21T08:38:00.845Z,35.78
2023-05-21T08:39:00.812Z,35.84
2023-05-21T08:40:00.808Z,33.12
2023-05-21T08:41:00.822Z,32.03
2023-05-21T08:42:00.797Z,32.31
2023-05-21T08:43:00.794Z,32.34
2023-05-21T08:44:00.813Z,32.29
2023-05-21T08:45:00.783Z,33.57
2023-05-21T08:46:00.804Z,33.93
2023-05-21T08:47:00.796Z,33.40
2023-05-21T08:48:00.853Z,34.56
2023-05-21T08:49:00.748Z,34.59
2023-05-21T08:50:00.820Z,33.62
2023-05-21T08:51:00.748Z,35.25
2023-05-21T08:52:00.752Z,35.52
2023-05-21T08:53:00.790Z,33.35
2023-05-21T08:54:00.790Z,37.13
2023-05-21T08:55:00.706Z,36.50
2023-05-21T08:56:00.722Z,34.36
2023-05-21T08:57:00.760Z,35.41
2023-05-21T08:58:00.688Z,35.35
2023-05-21T08:59:00.697Z,32.93
2023-05-21T09:00:00.697Z,35.49
2023-05-21T09:01:00.734Z,34.75
2023-05-21T09:02:00.706Z,35.34
2023-05-21T09:03:00.752Z,35.67
2023-05-21T09:04:12.360Z,32.25
2023-05-21T09:05:00.641Z,32.79
2023-05-21T09:06:00.643Z,34.01
2023-05-21T09:07:00.633Z,35.30
2023-05-21T09:08:00.624Z,36.11
2023-05-21T09:09:00.619Z,35.27
2023-05-21T09:10:00.604Z,36.55
2023-05-21T09:11:00.603Z,36.45
2023-05-21T09:12:00.596Z,40.19
2023-05-21T09:13:00.593Z,38.75
2023-05-21T09:14:00.582Z,37.50
2023-05-21T09:15:00.589Z,35.68
2023-05-21T09:16:00.610Z,40.50
2023-05-21T09:17:00.675Z,37.26
2023-05-21T09:18:00.614Z,39.39
2023-05-21T09:19:03.004Z,38.61
2023-05-21T09:20:00.542Z,38.97
2023-05-21T09:21:00.572Z,39.86
2023-05-21T09:22:00.535Z,39.41
2023-05-21T09:23:00.518Z,39.23
2023-05-21T09:24:00.534Z,40.94
2023-05-21T09:25:00.510Z,40.77
2023-05-21T09:26:00.528Z,41.76
2023-05-21T09:27:00.499Z,40.12
2023-05-21T09:28:00.502Z,39.03
2023-05-21T09:29:00.480Z,39.40
2023-05-21T09:30:00.480Z,40.59
2023-05-21T09:31:00.480Z,37.79
2023-05-21T09:32:00.498Z,38.39
2023-05-21T09:33:00.556Z,40.82
2023-05-21T09:34:00.489Z,38.62
2023-05-21T09:35:00.455Z,39.63
2023-05-21T09:36:00.454Z,39.71
2023-05-21T09:37:00.432Z,40.09
2023-05-21T09:38:00.425Z,38.29
2023-05-21T09:39:00.511Z,40.27
2023-05-21T09:40:00.440Z,39.09
2023-05-21T09:41:00.426Z,40.37
2023-05-21T09:42:00.426Z,39.51
2023-05-21T09:43:00.405Z,39.73
2023-05-21T09:44:00.407Z,40.32
2023-05-21T09:45:00.411Z,42.26
2023-05-21T09:46:02.117Z,40.59
2023-05-21T09:47:00.513Z,40.31
2023-05-21T09:48:00.464Z,44.23
2023-05-21T09:49:00.377Z,40.18
2023-05-21T09:50:00.440Z,41.43
2023-05-21T09:51:00.374Z,40.11
2023-05-21T09:52:00.380Z,40.14
2023-05-21T09:53:00.357Z,40.36
2023-05-21T09:54:00.349Z,42.16
2023-05-21T09:55:00.341Z,41.03
2023-05-21T09:56:00.332Z,40.09
2023-05-21T09:57:00.328Z,42.58
2023-05-21T09:58:00.872Z,40.12
2023-05-21T09:59:00.331Z,42.89
2023-05-21T10:00:00.363Z,38.71
2023-05-21T10:01:00.298Z,43.50
2023-05-21T10:02:00.329Z,42.44
2023-05-21T10:03:00.353Z,41.01
2023-05-21T10:04:00.462Z,42.55
2023-05-21T10:05:00.290Z,42.41
2023-05-21T10:06:00.272Z,43.61
2023-05-21T10:07:00.264Z,42.54
2023-05-21T10:08:00.259Z,42.61
2023-05-21T10:09:01.226Z,41.56
2023-05-21T10:10:00.240Z,41.70
2023-05-21T10:11:00.235Z,42.63
2023-05-21T10:12:00.248Z,43.12
2023-05-21T10:13:00.223Z,41.85
2023-05-21T10:14:00.223Z,42.16
2023-05-21T10:15:00.223Z,44.44
2023-05-21T10:16:00.268Z,43.40
2023-05-21T10:17:00.196Z,43.09
2023-05-21T10:18:00.245Z,40.75
2023-05-21T10:19:00.287Z,44.91
2023-05-21T10:20:00.256Z,45.65
2023-05-21T10:21:00.180Z,44.74
2023-05-21T10:22:00.173Z,44.79
2023-05-21T10:23:00.194Z,44.67
2023-05-21T10:24:00.168Z,44.60
2023-05-21T10:25:00.213Z,46.25
2023-05-21T10:26:00.144Z,42.09
2023-05-21T10:27:00.149Z,45.67
2023-05-21T10:28:00.129Z,46.44
2023-05-21T10:29:00.240Z,45.28
2023-05-21T10:30:00.126Z,45.08
2023-05-21T10:31:00.144Z,46.18
2023-05-21T10:32:00.165Z,42.49
2023-05-21T10:33:00.232Z,45.91
2023-05-21T10:34:00.107Z,43.93
2023-05-21T10:35:01.612Z,43.84
2023-05-21T10:36:00.147Z,47.62
2023-05-21T10:37:00.092Z,49.05
2023-05-21T10:38:00.067Z,48.17
2023-05-21T10:39:00.057Z,44.37
2023-05-21T10:40:00.052Z,45.96
2023-05-21T10:41:00.048Z,46.86
2023-05-21T10:42:00.041Z,45.56
2023-05-21T10:43:00.036Z,44.84
2023-05-21T10:44:00.041Z,43.68
2023-05-21T10:45:00.025Z,44.00
2023-05-21T10:46:00.064Z,44.57
2023-05-21T10:47:00.010Z,43.19
2023-05-21T10:48:00.089Z,46.51
2023-05-21T10:49:00.004Z,46.79
2023-05-21T10:49:59.997Z,47.70
2023-05-21T10:50:59.990Z,45.40
2023-05-21T10:52:00.024Z,45.16
2023-05-21T10:52:59.973Z,47.34
2023-05-21T10:53:59.959Z,44.55
2023-05-21T10:54:59.961Z,45.60
2023-05-21T10:55:59.965Z,43.90
2023-05-21T10:56:59.957Z,43.81
2023-05-21T10:57:59.942Z,44.48
2023-05-21T10:58:59.954Z,45.11
2023-05-21T10:59:59.984Z,46.88
2023-05-21T11:01:00.107Z,48.50
2023-05-21T11:02:00.267Z,45.30
2023-05-21T11:03:00.350Z,45.76
2023-05-21T11:04:00.389Z,44.87
2023-05-21T11:05:00.294Z,45.64
2023-05-21T11:06:00.399Z,45.59
2023-05-21T11:07:00.415Z,45.67
2023-05-21T11:08:00.515Z,45.65
2023-05-21T11:09:00.582Z,46.23
2023-05-21T11:10:00.605Z,45.58
2023-05-21T11:11:00.705Z,45.58
2023-05-21T11:12:00.790Z,47.56
2023-05-21T11:13:00.797Z,44.44
2023-05-21T11:14:00.859Z,46.69
2023-05-21T11:15:00.868Z,47.53
2023-05-21T11:16:00.969Z,45.82
2023-05-21T11:17:01.050Z,45.84
2023-05-21T11:18:01.132Z,44.01
2023-05-21T11:19:01.174Z,50.47
2023-05-21T11:20:01.179Z,45.69
2023-05-21T11:21:01.267Z,49.01
2023-05-21T11:22:01.282Z,45.52
2023-05-21T11:23:01.348Z,47.47
2023-05-21T11:24:01.424Z,46.99
2023-05-21T11:25:01.490Z,48.18
2023-05-21T11:26:01.576Z,44.94
2023-05-21T11:27:01.591Z,45.39
2023-05-21T11:28:01.657Z,44.90
2023-05-21T11:29:01.693Z,46.18
2023-05-21T11:30:01.742Z,47.40
2023-05-21T11:31:01.823Z,49.09
2023-05-21T11:32:01.834Z,47.01
2023-05-21T11:33:01.913Z,47.26
2023-05-21T11:34:01.917Z,47.25
2023-05-21T11:35:01.988Z,47.47
2023-05-21T11:36:02.043Z,49.68
2023-05-21T11:37:02.093Z,48.10
2023-05-21T11:38:02.143Z,49.84
2023-05-21T11:39:02.237Z,48.80
2023-05-21T11:40:02.279Z,49.52
2023-05-21T11:41:02.321Z,46.80
2023-05-21T11:42:04.396Z,49.31
2023-05-21T11:43:02.370Z,50.80
2023-05-21T11:44:02.369Z,51.46
2023-05-21T11:45:02.358Z,51.55
2023-05-21T11:46:02.422Z,50.26
2023-05-21T11:47:02.428Z,48.39
2023-05-21T11:48:02.376Z,48.37
2023-05-21T11:49:02.329Z,47.76
2023-05-21T11:50:02.329Z,47.98
2023-05-21T11:51:02.326Z,47.72
2023-05-21T11:52:02.321Z,49.28
2023-05-21T11:53:02.317Z,48.49
2023-05-21T11:54:02.310Z,48.60
2023-05-21T11:55:02.307Z,48.87
2023-05-21T11:56:02.465Z,50.44
2023-05-21T11:57:02.281Z,48.83
2023-05-21T11:58:02.288Z,46.86
2023-05-21T11:59:02.268Z,48.61
2023-05-21T12:00:02.277Z,49.21
2023-05-21T12:01:02.278Z,49.52
2023-05-21T12:02:02.246Z,46.35
2023-05-21T12:03:02.323Z,49.31
2023-05-21T12:04:02.371Z,52.14
2023-05-21T12:05:02.231Z,50.07
2023-05-21T12:06:02.318Z,50.60
2023-05-21T12:07:02.219Z,49.71
2023-05-21T12:08:02.229Z,49.56
2023-05-21T12:09:02.225Z,48.96
2023-05-21T12:10:02.287Z,46.92
2023-05-21T12:11:02.397Z,49.91
2023-05-21T12:12:02.397Z,49.12
2023-05-21T12:13:02.417Z,51.55
2023-05-21T12:14:02.503Z,49.98
2023-05-21T12:15:02.461Z,51.75
2023-05-21T12:16:03.449Z,50.73
2023-05-21T12:17:02.485Z,54.36
2023-05-21T12:18:02.552Z,54.96
2023-05-21T12:19:02.499Z,51.14
2023-05-21T12:20:02.471Z,49.74
2023-05-21T12:21:02.458Z,53.27
2023-05-21T12:22:02.451Z,51.98
2023-05-21T12:23:02.463Z,51.98
2023-05-21T12:24:02.445Z,50.67
2023-05-21T12:25:02.433Z,49.31
2023-05-21T12:26:02.445Z,49.40
2023-05-21T12:27:02.410Z,55.02
2023-05-21T12:28:02.432Z,51.51
2023-05-21T12:29:02.398Z,49.27
2023-05-21T12:30:02.391Z,52.30
2023-05-21T12:31:02.422Z,51.81
2023-05-21T12:32:02.469Z,48.78
2023-05-21T12:33:02.677Z,52.73
2023-05-21T12:34:02.373Z,50.13
2023-05-21T12:35:02.400Z,50.23
2023-05-21T12:36:02.379Z,51.30
2023-05-21T12:37:02.349Z,51.97
2023-05-21T12:38:02.352Z,54.38
2023-05-21T12:39:02.351Z,55.92
2023-05-21T12:40:02.348Z,51.40
2023-05-21T12:41:02.323Z,50.69
2023-05-21T12:42:02.329Z,51.34
2023-05-21T12:43:02.326Z,53.96
2023-05-21T12:44:02.337Z,51.39
2023-05-21T12:45:02.297Z,53.98
2023-05-21T12:46:02.326Z,55.90
2023-05-21T12:47:02.351Z,52.09
2023-05-21T12:48:02.449Z,56.35
2023-05-21T12:49:02.448Z,51.75
2023-05-21T12:50:02.521Z,54.09
2023-05-21T12:51:02.532Z,54.43
2023-05-21T12:52:02.574Z,54.85